Flight Track Log - Related Links

Times and Time Zones

All times are in EDT time to prevent confusion due to time zone crossing. See the N1794X flight status page for this flight to view local times or setup timezone preferences in your user account.

Time Position Orientation Groundspeed Altitude Reporting Facility
EDT Latitude Longitude Course Direction KTS MPH feet Rate Location/Type
Mon 11:16:00 AM 33.1564 -81.9754 190° South  Level FlightAware Approximate
Mon 11:17:00 AM 33.1216 -81.9824 190° South  Level FlightAware Approximate
Mon 11:18:00 AM 33.0865 -81.9855 183° South  Level FlightAware Approximate
Mon 11:19:00 AM 33.0513 -81.9880 183° South  Level FlightAware Approximate
Mon 11:20:00 AM 33.0142 -81.9907 183° South  Level FlightAware Approximate
Mon 11:21:00 AM 32.9770 -81.9933 183° South  Level FlightAware Approximate
Mon 11:21:51 AM 33.1139 -81.8139 143° Southeast 165 190 5,900  Level Jacksonville Center
Mon 11:22:00 AM 32.9399 -81.9960 183° South  Level FlightAware Approximate
Mon 11:22:51 AM 33.0803 -81.7794 139° Southeast 165 190 5,900  Level Jacksonville Center
Mon 11:23:00 AM 32.9028 -81.9986 183° South  Level FlightAware Approximate
Mon 11:23:51 AM 33.0444 -81.7453 141° Southeast 165 190 5,900  Level Jacksonville Center
Mon 11:24:00 AM 32.8658 -82.0019 184° South  Level Estimated
Mon 11:24:51 AM 33.0106 -81.7111 140° Southeast 160 184 5,900  Level Jacksonville Center
Mon 11:25:00 AM 32.8287 -82.0051 184° South  Level Estimated
Mon 11:25:51 AM 32.9728 -81.6767 143° Southeast 160 184 5,900  Level Jacksonville Center
Mon 11:26:00 AM 32.7917 -82.0084 184° South  Level Estimated
Mon 11:26:51 AM 32.9350 -81.6428 143° Southeast 160 184 5,900  Level Jacksonville Center
Mon 11:27:51 AM 32.9011 -81.6133 144° Southeast 165 190 5,900  Level Jacksonville Center
Mon 11:28:52 AM 32.8614 -81.6139 181° South 151 174 5,900  Level Jacksonville Center
Mon 11:29:51 AM 32.8200 -81.6244 192° South 144 166 5,900  Level Jacksonville Center
Mon 11:30:51 AM 32.7825 -81.6325 190° South 150 173 5,900  Level Jacksonville Center
Mon 11:31:51 AM 32.7408 -81.6403 189° South 150 173 5,900  Level Jacksonville Center
Mon 11:32:51 AM 32.7033 -81.6483 190° South 145 167 5,900  Level Jacksonville Center
Mon 11:33:51 AM 32.6636 -81.6611 195° South 145 167 5,900  Level Jacksonville Center
Mon 11:34:51 AM 32.6242 -81.6767 198° South 145 167 5,900  Level Jacksonville Center
Mon 11:35:51 AM 32.5889 -81.6869 194° South 145 167 5,900  Level Jacksonville Center
Mon 11:36:51 AM 32.5514 -81.6947 190° South 145 167 5,900  Level Jacksonville Center
Mon 11:37:51 AM 32.5075 -81.7028 189° South 145 167 5,900  Level Jacksonville Center
Mon 11:38:51 AM 32.4681 -81.7131 192° South 145 167 5,900  Level Jacksonville Center
Mon 11:39:52 AM 32.4306 -81.7211 190° South 145 167 5,900  Level Jacksonville Center
Mon 11:40:51 AM 32.3950 -81.7264 187° South 145 167 5,900  Level Jacksonville Center
Mon 11:41:51 AM 32.3533 -81.7342 189° South 145 167 5,900  Level Jacksonville Center
Mon 11:42:51 AM 32.3117 -81.7422 189° South 145 167 5,900  Level Jacksonville Center
Mon 11:44:00 AM 32.2691 -81.7478 186° South  Level FlightAware Approximate
Mon 11:51:00 AM 32.0103 -81.7820 186° South  Level FlightAware Approximate
Mon 11:52:00 AM 31.9729 -81.7888 190° South  Level FlightAware Approximate
Mon 11:52:39 AM 31.9644 -81.9325 190° South 140 161 5,900  Level Jacksonville Center
Mon 11:53:00 AM 31.9362 -81.7961 190° South  Level FlightAware Approximate
Mon 11:53:39 AM 31.9333 -81.9500 206° Southwest 140 161 5,900  Level Jacksonville Center
Mon 11:54:00 AM 31.8995 -81.8035 190° South  Level FlightAware Approximate
Mon 11:54:39 AM 31.9000 -81.9603 195° South 140 161 5,900  Level Jacksonville Center
Mon 11:55:00 AM 31.8628 -81.8108 190° South  Level FlightAware Approximate
Mon 11:55:39 AM 31.8603 -81.9656 186° South 140 161 5,900  Level Jacksonville Center
Mon 11:56:00 AM 31.8261 -81.8182 190° South  Level FlightAware Approximate
Mon 11:56:39 AM 31.8186 -81.9758 192° South 140 161 5,900  Level Jacksonville Center
Mon 11:57:00 AM 31.7894 -81.8255 190° South  Level FlightAware Approximate
Mon 11:57:39 AM 31.7792 -81.9833 189° South 140 161 5,900  Level Jacksonville Center
Mon 11:58:39 AM 31.7394 -81.9886 186° South 145 167 5,900  Level Jacksonville Center
Mon 11:59:39 AM 31.7042 -81.9964 191° South 145 167 5,900  Level Jacksonville Center
Mon 12:00:39 PM 31.6603 -82.0017 186° South 138 159 5,900  Level Jacksonville Center
Mon 12:01:39 PM 31.6228 -82.0094 190° South 143 165 5,900  Level Jacksonville Center
Mon 12:02:39 PM 31.5831 -82.0122 183° South 142 163 5,900  Level Jacksonville Center
Mon 12:03:39 PM 31.5475 -82.0125 180° South 142 163 5,900  Level Jacksonville Center
Mon 12:04:39 PM 31.5078 -82.0153 183° South 142 163 5,900  Level Jacksonville Center
Mon 12:05:39 PM 31.4661 -82.0181 183° South 142 163 5,900  Level Jacksonville Center
Mon 12:06:39 PM 31.4286 -82.0233 187° South 144 166 5,900  Level Jacksonville Center
Mon 12:07:39 PM 31.3869 -82.0286 186° South 149 171 5,900  Level Jacksonville Center
Mon 12:08:39 PM 31.3494 -82.0386 193° South 144 166 5,900  Level Jacksonville Center
Mon 12:09:39 PM 31.3139 -82.0464 191° South 144 166 5,900  Level Jacksonville Center
Mon 12:10:39 PM 31.2742 -82.0517 186° South 144 166 5,900  Level Jacksonville Center
Mon 12:11:39 PM 31.2367 -82.0592 190° South 144 166 5,900  Level Jacksonville Center
Mon 12:12:39 PM 31.1992 -82.0667 190° South 144 166 5,900  Level Jacksonville Center
Mon 12:13:18 PM 31.1722 -82.0694 185° South 138 159 5,900  Level Jacksonville Center
Mon 12:13:39 PM 31.1617 -82.0744 202° Southwest 144 166 5,900  Level Jacksonville Center
Mon 12:14:38 PM 31.1219 -82.0819 189° South 139 160 5,900  Level Jacksonville Center
Mon 12:15:39 PM 31.0844 -82.0897 190° South 141 162 5,900  Level Jacksonville Center
Mon 12:15:39 PM 31.0844 -82.0897 190° South 144 166 5,900  Level Jacksonville Center
Mon 12:16:39 PM 31.0450 -82.0947 186° South 144 166 5,900  Level Jacksonville Center
Mon 12:17:39 PM 31.0072 -82.1000 187° South 144 166 5,900  Level Jacksonville Center
Mon 12:18:39 PM 30.9678 -82.1028 183° South 144 166 5,900  Level Jacksonville Center
Mon 12:19:39 PM 30.9258 -82.1056 183° South 144 166 5,900  Level Jacksonville Center
Mon 12:20:38 PM 30.8864 -82.1083 183° South 146 168 5,900  Level Jacksonville Center
Mon 12:21:39 PM 30.8425 -82.1086 180° South 146 168 5,900  Level Jacksonville Center
Mon 12:22:39 PM 30.8050 -82.1114 184° South 144 166 5,900  Level Jacksonville Center
Mon 12:23:41 PM 30.7611 -82.1189 188° South 142 163 5,900  Level Jacksonville Center
Mon 12:24:42 PM 30.7214 -82.1264 189° South 143 165 5,900  Level Jacksonville Center
Mon 12:25:49 PM 30.6778 -82.1364 191° South 144 166 5,900  Level Jacksonville Center
Mon 12:26:44 PM 30.6442 -82.1417 188° South 144 166 5,900  Level Jacksonville Center
Mon 12:27:39 PM 30.6047 -82.1467 186° South 145 167 5,900  Level Jacksonville Center
Mon 12:28:46 PM 30.5589 -82.1544 188° South 145 167 5,900  Level Jacksonville Center
Mon 12:29:47 PM 30.5192 -82.1619 189° South 144 166 5,900  Level Jacksonville Center
Mon 12:30:54 PM 30.4733 -82.1647 183° South 144 166 5,900  Level Jacksonville Center
Mon 12:32:01 PM 30.4314 -82.1722 189° South 145 167 5,900  Level Jacksonville Center
Mon 12:33:02 PM 30.3897 -82.1772 186° South 147 169 5,900  Level Jacksonville Center
Mon 12:33:45 PM 30.3586 -82.1825 188° South 145 167 5,900  Level Jacksonville Center
Mon 12:34:46 PM 30.3208 -82.1900 190° South 144 166 5,900  Level Jacksonville Center
Mon 12:35:47 PM 30.2792 -82.1950 186° South 143 165 5,900 -52 Level Jacksonville Center
Mon 12:36:42 PM 30.2439 -82.2000 187° South 142 163 5,800 -375 Descending Jacksonville Center
Mon 12:37:55 PM 30.1894 -82.2100 189° South 159 183 5,100 -403 Descending Jacksonville Center
Mon 12:38:56 PM 30.1478 -82.2175 189° South 162 186 4,900 -103 Descending Jacksonville Center
Mon 12:39:51 PM 30.1081 -82.2250 189° South 148 170 4,900  Level Jacksonville Center
Mon 12:40:52 PM 30.0686 -82.2278 183° South 143 165 4,900 -98 Level Jacksonville Center
Mon 12:41:53 PM 30.0289 -82.2328 186° South 145 167 4,700 -375 Descending Jacksonville Center
Mon 12:43:00 PM 29.9767 -82.2381 185° South 160 184 4,100 -645 Descending Jacksonville Center
Mon 12:43:54 PM 29.9350 -82.2431 186° South 164 189 3,400 -730 Descending Jacksonville Center
Mon 12:44:55 PM 29.8953 -82.2481 186° South 148 170 2,700 -563 Descending Jacksonville Center
Mon 12:46:02 PM 29.8514 -82.2458 177° South 147 169 2,200 -393 Descending Jacksonville Center
Mon 12:46:57 PM 29.8119 -82.2461 180° South 154 177 1,900 -155 Descending Jacksonville Center
Mon 12:47:58 PM 29.7742 -82.2464 180° South 138 159 1,900 -98 Level Jacksonville Center
Mon 12:48:59 PM 29.7367 -82.2444 177° South 120 138 1,700 -492 Descending Jacksonville Center
Mon 12:50:00 PM 29.7094 -82.2469 185° South 90 104 900 -787 Descending Jacksonville Center

Login

Don't have an account? Register now (free) for customized features, flight alerts, and more!